createdAt,value
2019-05-02T00:01:29.924Z,9.51
2019-05-02T00:03:59.289Z,9.42
2019-05-02T00:06:28.409Z,9.27
2019-05-02T00:08:57.716Z,9.21
2019-05-02T00:11:27.899Z,9.18
2019-05-02T00:13:57.404Z,9.07
2019-05-02T00:16:26.838Z,9.07
2019-05-02T00:18:56.494Z,9.11
2019-05-02T00:21:25.662Z,9.12
2019-05-02T00:23:59.286Z,9.16
2019-05-02T00:26:26.052Z,9.14
2019-05-02T00:28:56.014Z,9.23
2019-05-02T00:31:25.619Z,9.18
2019-05-02T00:33:54.742Z,9.24
2019-05-02T00:36:23.840Z,9.22
2019-05-02T00:38:53.072Z,9.23
2019-05-02T00:41:22.146Z,9.17
2019-05-02T00:43:51.237Z,9.21
2019-05-02T00:46:20.482Z,9.18
2019-05-02T00:48:59.927Z,9.20
2019-05-02T00:51:28.200Z,9.19
2019-05-02T00:53:57.288Z,9.10
2019-05-02T00:56:26.385Z,9.13
2019-05-02T00:58:55.679Z,9.08
2019-05-02T01:01:55.261Z,9.03
2019-05-02T01:04:29.000Z,9.07
2019-05-02T01:06:58.301Z,9.02
2019-05-02T01:09:27.692Z,9.05
2019-05-02T01:11:56.817Z,9.02
2019-05-02T01:14:27.038Z,8.86
2019-05-02T01:16:57.435Z,8.92
2019-05-02T01:19:26.737Z,9.01
2019-05-02T01:21:55.910Z,9.04
2019-05-02T01:24:25.081Z,9.01
2019-05-02T01:27:04.556Z,8.85
2019-05-02T01:29:42.822Z,9.00
2019-05-02T01:32:30.310Z,8.96
2019-05-02T01:35:15.114Z,8.94
2019-05-02T01:38:15.947Z,8.93
2019-05-02T01:40:48.211Z,8.98
2019-05-02T01:43:26.068Z,8.96
2019-05-02T01:45:55.561Z,8.87
2019-05-02T01:48:25.167Z,8.77
2019-05-02T01:50:54.526Z,8.71
2019-05-02T01:53:23.640Z,8.64
2019-05-02T01:55:57.383Z,8.57
2019-05-02T01:58:24.182Z,8.51
2019-05-02T02:00:53.477Z,8.42
2019-05-02T02:03:22.598Z,8.37
2019-05-02T02:05:52.188Z,8.30
2019-05-02T02:08:21.204Z,8.29
2019-05-02T02:10:55.659Z,8.30
2019-05-02T02:13:21.301Z,8.30
2019-05-02T02:15:50.634Z,8.37
2019-05-02T02:18:22.266Z,8.28
2019-05-02T02:21:09.768Z,8.23
2019-05-02T02:23:49.677Z,8.18
2019-05-02T02:26:19.195Z,8.12
2019-05-02T02:28:48.301Z,8.09
2019-05-02T02:31:20.195Z,8.03
2019-05-02T02:33:49.947Z,7.99
2019-05-02T02:36:30.219Z,7.93
2019-05-02T02:38:50.299Z,7.86
2019-05-02T02:41:19.391Z,7.87
2019-05-02T02:44:05.820Z,7.90
2019-05-02T02:46:38.105Z,7.85
2019-05-02T02:49:07.091Z,7.87
2019-05-02T02:51:36.382Z,7.89
2019-05-02T02:54:05.940Z,7.79
2019-05-02T02:56:40.739Z,7.79
2019-05-02T02:59:07.783Z,7.78
2019-05-02T03:01:37.088Z,7.78
2019-05-02T03:04:09.298Z,7.74
2019-05-02T03:06:38.450Z,7.67
2019-05-02T03:09:08.596Z,7.71
2019-05-02T03:11:45.934Z,7.67
2019-05-02T03:14:20.703Z,7.63
2019-05-02T03:16:49.923Z,7.55
2019-05-02T03:19:21.497Z,7.44
2019-05-02T03:22:01.180Z,7.37
2019-05-02T03:24:27.447Z,7.31
2019-05-02T03:26:58.308Z,7.33
2019-05-02T03:29:39.289Z,7.40
2019-05-02T03:32:13.356Z,7.43
2019-05-02T03:34:44.896Z,7.44
2019-05-02T03:37:03.223Z,7.43
2019-05-02T03:39:31.326Z,7.43
2019-05-02T03:42:02.903Z,7.47
2019-05-02T03:44:31.859Z,7.31
2019-05-02T03:47:04.626Z,7.28
2019-05-02T03:49:32.269Z,7.27
2019-05-02T03:52:02.631Z,7.33
2019-05-02T03:54:33.567Z,7.36
2019-05-02T03:57:02.941Z,7.17
2019-05-02T03:59:38.927Z,7.19
2019-05-02T04:02:03.194Z,7.22
2019-05-02T04:04:32.709Z,7.18
2019-05-02T04:07:03.420Z,7.17
2019-05-02T04:09:39.251Z,7.15
2019-05-02T04:12:11.776Z,7.11
2019-05-02T04:14:38.812Z,6.95
2019-05-02T04:17:08.560Z,6.95
2019-05-02T04:19:37.826Z,6.98
2019-05-02T04:22:11.334Z,7.01
2019-05-02T04:24:38.413Z,6.98
2019-05-02T04:27:07.485Z,7.03
2019-05-02T04:29:36.825Z,7.07
2019-05-02T04:32:11.557Z,7.04
2019-05-02T04:34:36.803Z,7.10
2019-05-02T04:37:06.084Z,7.06
2019-05-02T04:39:35.335Z,7.12
2019-05-02T04:42:13.008Z,7.05
2019-05-02T04:44:52.959Z,7.07
2019-05-02T04:47:17.082Z,7.09
2019-05-02T04:49:39.326Z,7.10
2019-05-02T04:52:12.209Z,7.24
2019-05-02T04:54:39.390Z,7.24
2019-05-02T04:57:08.847Z,7.38
2019-05-02T04:59:39.528Z,7.46
2019-05-02T05:02:09.413Z,7.46
2019-05-02T05:04:45.980Z,7.48
2019-05-02T05:07:09.780Z,7.63
2019-05-02T05:09:39.926Z,7.63
2019-05-02T05:12:09.702Z,7.66
2019-05-02T05:14:43.017Z,7.79
2019-05-02T05:17:10.154Z,7.78
2019-05-02T05:19:39.364Z,7.95
2019-05-02T05:22:11.734Z,8.06
2019-05-02T05:24:54.328Z,8.20
2019-05-02T05:27:23.897Z,8.23
2019-05-02T05:29:53.795Z,8.22
2019-05-02T05:32:24.002Z,8.30
2019-05-02T05:34:55.182Z,8.30
2019-05-02T05:37:24.623Z,8.19
2019-05-02T05:39:53.737Z,8.28
2019-05-02T05:42:28.761Z,8.25
2019-05-02T05:44:54.046Z,8.25
2019-05-02T05:47:23.257Z,8.37
2019-05-02T05:49:57.650Z,8.49
2019-05-02T05:52:23.595Z,8.58
2019-05-02T05:54:52.773Z,8.78
2019-05-02T05:57:22.072Z,8.76
2019-05-02T05:59:51.175Z,8.82
2019-05-02T06:02:20.467Z,8.88
2019-05-02T06:04:50.184Z,9.06
2019-05-02T06:07:20.049Z,9.09
2019-05-02T06:09:49.441Z,9.11
2019-05-02T06:12:18.571Z,9.14
2019-05-02T06:14:47.625Z,9.28
2019-05-02T06:17:16.795Z,9.55
2019-05-02T06:19:48.337Z,9.81
2019-05-02T06:22:24.154Z,9.87
2019-05-02T06:24:50.830Z,10.08
2019-05-02T06:27:20.834Z,10.32
2019-05-02T06:29:51.071Z,10.56
2019-05-02T06:32:21.336Z,10.81
2019-05-02T06:34:50.400Z,11.12
2019-05-02T06:37:19.680Z,11.46
2019-05-02T06:39:49.040Z,11.72
2019-05-02T06:42:18.190Z,12.03
2019-05-02T06:44:47.253Z,12.40
2019-05-02T06:47:16.413Z,12.54
2019-05-02T06:49:45.544Z,12.66
2019-05-02T06:52:14.829Z,12.80
2019-05-02T06:54:45.333Z,12.87
2019-05-02T06:57:14.409Z,12.87
2019-05-02T06:59:43.540Z,13.10
2019-05-02T07:02:12.694Z,13.41
2019-05-02T07:04:42.019Z,13.87
2019-05-02T07:07:13.148Z,14.31
2019-05-02T07:09:42.342Z,14.49
2019-05-02T07:12:14.686Z,14.54
2019-05-02T07:14:45.545Z,14.50
2019-05-02T07:17:38.304Z,14.54
2019-05-02T07:20:06.806Z,14.48
2019-05-02T07:22:38.948Z,14.46
2019-05-02T07:25:08.948Z,14.46
2019-05-02T07:27:39.352Z,14.49
2019-05-02T07:30:09.192Z,14.49
2019-05-02T07:32:38.330Z,14.42
2019-05-02T07:35:08.245Z,14.40
2019-05-02T07:37:37.836Z,14.40
2019-05-02T07:40:11.999Z,14.50
2019-05-02T07:42:41.810Z,14.67
2019-05-02T07:45:10.803Z,14.60
2019-05-02T07:47:42.411Z,14.60
2019-05-02T07:50:11.937Z,14.69
2019-05-02T07:52:41.584Z,14.79
2019-05-02T07:55:11.274Z,15.04
2019-05-02T07:57:40.370Z,15.23
2019-05-02T08:00:10.379Z,15.42
2019-05-02T08:02:39.691Z,15.44
2019-05-02T08:05:09.171Z,15.53
2019-05-02T08:07:38.349Z,15.45
2019-05-02T08:10:07.761Z,15.59
2019-05-02T08:12:36.950Z,15.59
2019-05-02T08:15:12.545Z,15.57
2019-05-02T08:17:38.120Z,15.54
2019-05-02T08:20:08.635Z,15.57
2019-05-02T08:22:37.916Z,15.76
2019-05-02T08:25:10.504Z,15.86
2019-05-02T08:27:48.768Z,15.97
2019-05-02T08:30:27.591Z,15.97
2019-05-02T08:32:56.780Z,16.01
2019-05-02T08:35:28.036Z,16.23
2019-05-02T08:37:57.114Z,16.48
2019-05-02T08:40:26.261Z,16.73
2019-05-02T08:42:55.459Z,16.99
2019-05-02T08:45:24.882Z,17.24
2019-05-02T08:47:54.196Z,17.43
2019-05-02T08:50:27.112Z,17.51
2019-05-02T08:52:54.415Z,17.58
2019-05-02T08:55:23.549Z,17.78
2019-05-02T08:57:52.844Z,18.05
2019-05-02T09:00:22.362Z,18.11
2019-05-02T09:02:51.466Z,18.26
2019-05-02T09:05:20.551Z,18.41
2019-05-02T09:07:49.683Z,18.63
2019-05-02T09:10:19.325Z,18.74
2019-05-02T09:12:48.445Z,18.91
2019-05-02T09:15:18.515Z,18.92
2019-05-02T09:17:53.029Z,19.13
2019-05-02T09:20:20.869Z,19.33
2019-05-02T09:22:52.081Z,19.60
2019-05-02T09:25:21.974Z,19.75
2019-05-02T09:27:52.672Z,19.87
2019-05-02T09:30:25.732Z,19.88
2019-05-02T09:32:57.013Z,20.11
2019-05-02T09:35:23.764Z,20.12
2019-05-02T09:37:53.152Z,20.27
2019-05-02T09:40:22.447Z,20.23
2019-05-02T09:42:53.299Z,20.35
2019-05-02T09:45:35.489Z,20.48
2019-05-02T09:48:05.208Z,20.66
2019-05-02T09:50:32.234Z,20.73
2019-05-02T09:53:02.093Z,20.66
2019-05-02T09:55:32.309Z,20.38
2019-05-02T09:58:02.681Z,20.62
2019-05-02T10:00:52.523Z,20.65
2019-05-02T10:03:22.627Z,20.86
2019-05-02T10:05:52.550Z,20.93
2019-05-02T10:08:22.980Z,20.94
2019-05-02T10:10:52.340Z,20.94
2019-05-02T10:13:22.864Z,20.81
2019-05-02T10:15:52.786Z,20.56
2019-05-02T10:18:25.523Z,20.82
2019-05-02T10:20:52.825Z,21.03
2019-05-02T10:23:23.454Z,20.96
2019-05-02T10:25:53.328Z,21.04
2019-05-02T10:28:22.979Z,21.07
2019-05-02T10:30:56.547Z,21.04
2019-05-02T10:33:28.092Z,21.17
2019-05-02T10:35:55.101Z,21.07
2019-05-02T10:38:24.178Z,20.73
2019-05-02T10:40:59.314Z,20.40
2019-05-02T10:43:24.410Z,20.42
2019-05-02T10:46:01.824Z,20.58
2019-05-02T10:48:33.020Z,20.65
2019-05-02T10:51:34.435Z,20.88
2019-05-02T10:54:05.354Z,21.04
2019-05-02T10:56:34.967Z,21.34
2019-05-02T10:59:04.239Z,21.33
2019-05-02T11:01:44.815Z,21.30
2019-05-02T11:04:15.216Z,21.29
2019-05-02T11:06:46.277Z,20.83
2019-05-02T11:09:16.858Z,21.25
2019-05-02T11:11:46.436Z,21.34
2019-05-02T11:14:22.520Z,21.15
2019-05-02T11:16:59.244Z,21.51
2019-05-02T11:19:43.362Z,21.69
2019-05-02T11:22:12.618Z,21.69
2019-05-02T11:24:41.885Z,21.70
2019-05-02T11:27:12.928Z,21.58
2019-05-02T11:29:42.620Z,21.45
2019-05-02T11:32:12.775Z,21.31
2019-05-02T11:34:42.158Z,21.49
2019-05-02T11:37:12.107Z,21.48
2019-05-02T11:39:46.314Z,21.38
2019-05-02T11:42:12.583Z,21.14
2019-05-02T11:44:41.918Z,21.36
2019-05-02T11:47:12.609Z,21.63
2019-05-02T11:49:46.531Z,21.41
2019-05-02T11:52:12.981Z,21.49
2019-05-02T11:54:44.757Z,21.73
2019-05-02T11:57:13.909Z,21.55
2019-05-02T11:59:43.408Z,21.51
2019-05-02T12:02:31.990Z,21.58
2019-05-02T12:05:02.028Z,21.90
2019-05-02T12:07:32.439Z,22.09
2019-05-02T12:10:04.521Z,22.23
2019-05-02T12:12:36.254Z,22.07
2019-05-02T12:15:04.443Z,22.14
2019-05-02T12:17:33.567Z,22.22
2019-05-02T12:20:02.802Z,22.08
2019-05-02T12:22:32.480Z,22.08
2019-05-02T12:25:03.009Z,22.08
2019-05-02T12:27:32.232Z,22.13
2019-05-02T12:30:03.283Z,22.16
2019-05-02T12:32:33.415Z,22.29
2019-05-02T12:35:02.797Z,22.19
2019-05-02T12:37:32.711Z,21.87
2019-05-02T12:40:02.695Z,21.83
2019-05-02T12:42:32.975Z,21.59
2019-05-02T12:45:02.963Z,21.24
2019-05-02T12:47:56.283Z,21.18
2019-05-02T12:50:25.688Z,20.89
2019-05-02T12:52:55.746Z,21.27
2019-05-02T12:55:24.939Z,21.45
2019-05-02T12:57:54.189Z,21.49
2019-05-02T13:00:25.334Z,21.59
2019-05-02T13:03:13.547Z,21.92
2019-05-02T13:05:42.751Z,22.19
2019-05-02T13:08:12.406Z,22.27
2019-05-02T13:11:02.335Z,22.14
2019-05-02T13:13:30.206Z,22.21
2019-05-02T13:16:01.613Z,21.88
2019-05-02T13:18:34.824Z,21.89
2019-05-02T13:21:02.900Z,21.72
2019-05-02T13:23:52.627Z,22.02
2019-05-02T13:26:26.984Z,22.07
2019-05-02T13:28:53.413Z,22.18
2019-05-02T13:31:42.771Z,22.25
2019-05-02T13:34:18.729Z,22.37
2019-05-02T13:36:48.950Z,22.34
2019-05-02T13:39:37.333Z,22.48
2019-05-02T13:42:06.540Z,22.49
2019-05-02T13:44:38.983Z,22.27
2019-05-02T13:47:12.240Z,22.28
2019-05-02T13:49:53.614Z,22.35
2019-05-02T13:52:12.542Z,22.38
2019-05-02T13:54:42.658Z,22.25
2019-05-02T13:57:12.221Z,22.37
2019-05-02T13:59:41.767Z,22.43
2019-05-02T14:02:31.835Z,22.39
2019-05-02T14:05:02.269Z,22.25
2019-05-02T14:07:32.691Z,22.15
2019-05-02T14:10:06.256Z,22.11
2019-05-02T14:12:52.918Z,21.99
2019-05-02T14:15:24.362Z,21.78
2019-05-02T14:17:53.575Z,21.57
2019-05-02T14:20:22.815Z,21.33
2019-05-02T14:22:52.852Z,21.27
2019-05-02T14:25:22.590Z,21.36
2019-05-02T14:27:55.602Z,21.48
2019-05-02T14:30:37.090Z,21.51
2019-05-02T14:33:02.372Z,21.63
2019-05-02T14:35:36.310Z,21.68
2019-05-02T14:38:08.614Z,21.64
2019-05-02T14:40:43.079Z,21.49
2019-05-02T14:43:14.058Z,21.44
2019-05-02T14:45:44.031Z,21.36
2019-05-02T14:48:19.064Z,21.32
2019-05-02T14:50:45.885Z,21.36
2019-05-02T14:53:16.809Z,21.27
2019-05-02T14:55:47.948Z,21.18
2019-05-02T14:58:17.178Z,21.14
2019-05-02T15:00:48.219Z,20.93
2019-05-02T15:03:19.059Z,20.70
2019-05-02T15:05:48.473Z,20.47
2019-05-02T15:08:17.656Z,20.20
2019-05-02T15:10:52.408Z,20.16
2019-05-02T15:13:17.761Z,20.16
2019-05-02T15:15:47.286Z,19.94
2019-05-02T15:18:17.630Z,19.92
2019-05-02T15:20:47.134Z,19.84
2019-05-02T15:23:19.714Z,19.81
2019-05-02T15:25:52.632Z,19.74
2019-05-02T15:28:22.834Z,19.55
2019-05-02T15:31:05.631Z,19.41
2019-05-02T15:33:38.351Z,19.18
2019-05-02T15:36:08.228Z,18.95
2019-05-02T15:38:41.981Z,18.79
2019-05-02T15:41:12.607Z,18.63
2019-05-02T15:43:44.113Z,18.51
2019-05-02T15:46:17.315Z,18.35
2019-05-02T15:48:42.242Z,18.13
2019-05-02T15:51:12.350Z,18.00
2019-05-02T15:54:06.062Z,17.97
2019-05-02T15:56:32.476Z,18.04
2019-05-02T15:59:06.194Z,17.82
2019-05-02T16:01:58.991Z,17.81
2019-05-02T16:04:32.773Z,17.43
2019-05-02T16:07:07.190Z,17.25
2019-05-02T16:09:33.060Z,17.15
2019-05-02T16:12:03.089Z,16.97
2019-05-02T16:14:35.944Z,16.89
2019-05-02T16:17:03.939Z,16.94
2019-05-02T16:19:36.584Z,16.92
2019-05-02T16:22:15.773Z,16.92
2019-05-02T16:24:49.102Z,17.05
2019-05-02T16:27:20.738Z,17.03
2019-05-02T16:29:47.323Z,16.94
2019-05-02T16:32:30.891Z,16.93
2019-05-02T16:35:11.934Z,16.91
2019-05-02T16:37:35.384Z,16.88
2019-05-02T16:40:06.154Z,16.88
2019-05-02T16:42:35.260Z,16.84
2019-05-02T16:45:05.104Z,16.75
2019-05-02T16:47:34.194Z,16.71
2019-05-02T16:50:03.635Z,16.66
2019-05-02T16:52:32.841Z,16.56
2019-05-02T16:55:02.883Z,16.48
2019-05-02T16:57:35.088Z,16.37
2019-05-02T17:00:06.272Z,16.25
2019-05-02T17:02:37.879Z,16.10
2019-05-02T17:05:09.313Z,16.07
2019-05-02T17:07:52.875Z,16.03
2019-05-02T17:10:35.144Z,16.06
2019-05-02T17:13:04.506Z,16.00
2019-05-02T17:15:35.617Z,15.88
2019-05-02T17:18:12.612Z,15.89
2019-05-02T17:20:37.050Z,15.83
2019-05-02T17:23:07.362Z,15.81
2019-05-02T17:25:37.057Z,15.71
2019-05-02T17:28:10.345Z,15.65
2019-05-02T17:30:38.957Z,15.66
2019-05-02T17:33:14.279Z,15.53
2019-05-02T17:35:41.611Z,15.43
2019-05-02T17:38:12.067Z,15.26
2019-05-02T17:40:42.223Z,15.23
2019-05-02T17:43:11.774Z,15.09
2019-05-02T17:45:42.311Z,15.11
2019-05-02T17:48:16.111Z,14.99
2019-05-02T17:50:59.553Z,14.97
2019-05-02T17:53:33.603Z,14.87
2019-05-02T17:56:01.878Z,14.70
2019-05-02T17:58:31.757Z,14.69
2019-05-02T18:01:02.863Z,14.71
2019-05-02T18:03:35.167Z,14.71
2019-05-02T18:06:07.705Z,14.76
2019-05-02T18:08:35.411Z,14.67
2019-05-02T18:11:04.547Z,14.64
2019-05-02T18:13:35.283Z,14.61
2019-05-02T18:16:07.589Z,14.60
2019-05-02T18:18:37.617Z,14.58
2019-05-02T18:21:09.358Z,14.57
2019-05-02T18:23:38.632Z,14.53
2019-05-02T18:26:07.768Z,13.86
2019-05-02T18:28:46.949Z,14.36
2019-05-02T18:31:07.939Z,14.31
2019-05-02T18:33:41.112Z,14.22
2019-05-02T18:36:08.394Z,14.18
2019-05-02T18:38:37.924Z,14.23
2019-05-02T18:41:07.931Z,14.18
2019-05-02T18:43:43.617Z,14.13
2019-05-02T18:46:08.560Z,14.06
2019-05-02T18:48:44.196Z,14.06
2019-05-02T18:51:08.640Z,13.99
2019-05-02T18:53:38.153Z,14.00
2019-05-02T18:56:07.618Z,14.00
2019-05-02T18:58:41.559Z,13.81
2019-05-02T19:01:08.384Z,13.69
2019-05-02T19:03:38.945Z,13.63
2019-05-02T19:06:08.251Z,13.51
2019-05-02T19:08:46.821Z,13.54
2019-05-02T19:11:12.397Z,13.49
2019-05-02T19:13:42.956Z,13.50
2019-05-02T19:16:13.059Z,13.41
2019-05-02T19:18:42.758Z,13.44
2019-05-02T19:21:12.545Z,13.35
2019-05-02T19:23:42.567Z,13.33
2019-05-02T19:26:15.086Z,13.27
2019-05-02T19:29:02.282Z,13.31
2019-05-02T19:31:36.620Z,13.20
2019-05-02T19:34:06.374Z,13.15
2019-05-02T19:36:35.629Z,13.08
2019-05-02T19:39:09.689Z,13.13
2019-05-02T19:41:39.016Z,13.14
2019-05-02T19:44:08.082Z,13.02
2019-05-02T19:46:38.846Z,12.96
2019-05-02T19:49:12.384Z,12.93
2019-05-02T19:51:39.695Z,12.90
2019-05-02T19:54:09.015Z,12.86
2019-05-02T19:56:43.982Z,12.83
2019-05-02T19:59:09.207Z,12.82
2019-05-02T20:01:38.469Z,12.93
2019-05-02T20:04:09.342Z,12.93
2019-05-02T20:06:38.866Z,12.82
2019-05-02T20:09:08.548Z,12.75
2019-05-02T20:11:37.878Z,12.78
2019-05-02T20:14:09.624Z,12.79
2019-05-02T20:16:45.926Z,12.71
2019-05-02T20:19:17.386Z,12.69
2019-05-02T20:21:57.123Z,12.75
2019-05-02T20:24:43.827Z,12.71
2019-05-02T20:27:12.997Z,12.65
2019-05-02T20:29:42.618Z,12.61
2019-05-02T20:32:12.658Z,12.55
2019-05-02T20:34:42.086Z,12.53
2019-05-02T20:37:12.745Z,12.50
2019-05-02T20:39:41.956Z,12.54
2019-05-02T20:42:12.110Z,12.57
2019-05-02T20:44:41.875Z,12.59
2019-05-02T20:47:13.523Z,12.52
2019-05-02T20:49:42.856Z,12.59
2019-05-02T20:52:13.794Z,12.53
2019-05-02T20:54:42.996Z,12.51
2019-05-02T20:57:12.299Z,12.50
2019-05-02T20:59:41.795Z,12.45
2019-05-02T21:02:12.181Z,12.48
2019-05-02T21:04:42.453Z,12.47
2019-05-02T21:07:34.170Z,12.48
2019-05-02T21:10:15.137Z,12.47
2019-05-02T21:12:44.387Z,12.43
2019-05-02T21:15:14.073Z,12.42
2019-05-02T21:17:43.792Z,12.42
2019-05-02T21:20:13.194Z,12.43
2019-05-02T21:22:42.556Z,12.30
2019-05-02T21:25:13.034Z,12.27
2019-05-02T21:27:42.171Z,12.25
2019-05-02T21:30:12.355Z,12.17
2019-05-02T21:32:42.907Z,12.05
2019-05-02T21:35:12.469Z,12.19
2019-05-02T21:37:42.463Z,12.16
2019-05-02T21:40:11.959Z,12.18
2019-05-02T21:42:42.541Z,12.12
2019-05-02T21:45:13.208Z,12.15
2019-05-02T21:47:42.651Z,12.21
2019-05-02T21:50:27.897Z,12.24
2019-05-02T21:53:19.185Z,12.21
2019-05-02T21:56:12.338Z,12.26
2019-05-02T21:59:02.811Z,12.31
2019-05-02T22:01:32.890Z,12.14
2019-05-02T22:04:02.593Z,12.19
2019-05-02T22:06:32.401Z,12.14
2019-05-02T22:09:03.051Z,12.15
2019-05-02T22:11:32.337Z,12.11
2019-05-02T22:14:02.366Z,12.24
2019-05-02T22:16:32.632Z,12.24
2019-05-02T22:19:02.855Z,12.27
2019-05-02T22:21:35.021Z,12.28
2019-05-02T22:24:11.134Z,12.25
2019-05-02T22:26:33.913Z,12.22
2019-05-02T22:29:03.134Z,12.19
2019-05-02T22:31:32.503Z,12.22
2019-05-02T22:34:02.281Z,12.23
2019-05-02T22:36:32.670Z,12.23
2019-05-02T22:39:22.161Z,12.27
2019-05-02T22:41:52.584Z,12.26
2019-05-02T22:44:21.989Z,12.21
2019-05-02T22:46:52.078Z,12.27
2019-05-02T22:49:22.582Z,12.28
2019-05-02T22:51:51.789Z,12.31
2019-05-02T22:54:27.848Z,12.14
2019-05-02T22:56:52.209Z,12.21
2019-05-02T22:59:23.682Z,12.23
2019-05-02T23:01:52.930Z,12.21
2019-05-02T23:04:23.628Z,12.25
2019-05-02T23:06:53.119Z,12.17
2019-05-02T23:09:22.305Z,12.17
2019-05-02T23:11:51.991Z,12.10
2019-05-02T23:14:22.280Z,12.15
2019-05-02T23:16:52.788Z,12.13
2019-05-02T23:19:23.008Z,12.10
2019-05-02T23:21:52.826Z,12.09
2019-05-02T23:24:52.020Z,12.04
2019-05-02T23:27:43.869Z,12.08
2019-05-02T23:30:16.339Z,12.12
2019-05-02T23:32:45.812Z,12.06
2019-05-02T23:35:15.187Z,12.13
2019-05-02T23:37:44.292Z,12.09
2019-05-02T23:40:13.919Z,12.09
2019-05-02T23:42:43.026Z,12.02
2019-05-02T23:45:12.232Z,12.05
2019-05-02T23:47:42.165Z,11.99
2019-05-02T23:50:12.253Z,12.01
2019-05-02T23:52:41.461Z,12.03
2019-05-02T23:55:12.206Z,11.99
2019-05-02T23:57:42.022Z,11.96
